Terminal Aerodrome Forecast
Issued by NWS

Home | Current Version | Previous Version | Graphics & Text | Print | Product List | Glossary On
Versions: 1 2 3 4 5 6 7 8 9 10 11 12 13 14 15 16 17 18 19 20 21 22 23 24 25 26 27 28 29
000
FTUS43 KLOT 232100 AAB
TAFGYY
TAF AMD
KGYY 232100Z 2321/2418 15013G20KT P6SM BKN060
     FM232300 15013G20KT P6SM VCSH SCT030 OVC050
     FM240200 17011KT P6SM SCT025 BKN060
     FM240500 19010KT P6SM SCT010 BKN100 WS020/21045KT
     FM241400 20016G24KT P6SM SCT110=

USA.gov is the U.S. government's official web portal to all federal, state and local government web resources and services.